Allakaket, Alaska
Current Conditions -  °F | °C
As of 11:53 PM on Sunday 23 Nov 2014 (Local Time) from PABT Reporting Station
Overcast Overcast  
Wind Chill:   Ceiling: 7500
Heat Index:   Visibility: 10mi
Dew Point: -6°   Wind: 3mph
Humidity: 66%   Direction: 360°N
Pressure: 29.77"   Gusts: NA
Location:  66.57°N, 152.65°W
Report Text: PABT 240853Z 36003KT 10SM FEW050 OVC075 M16/M21 A2977 RMK AO2 SLP105 60000 T11611211 411111267 51007
Loading
Personal Weather Stations






























Interactive Weather Map New forecast layout! Learn more

10-Day Weather Forecast

Advertisements
Track Severe Weather on mobile